Time;durP1;ratioP1;P1;durP2;ratioP2;P2;SDS_P1;SDS_P2;PMS_P1;PMS_P2;Temp;Humidity;BMP_temperature;BMP_pressure;BME280_temperature;BME280_humidity;BME280_pressure;Samples;Min_cycle;Max_cycle;Signal;HPM_P1;HPM_P2
2022/02/01 00:01:01;;;;;;;44.95;19.48;;;;;;;1.64;55.05;98716.88;5053877;28;20414;-52
2022/02/01 00:03:30;;;;;;;40.65;18.75;;;;;;;1.64;55.75;98703.75;5051753;28;20053;-49
2022/02/01 00:06:17;;;;;;;45.72;19.60;;;;;;;1.73;53.95;98713.22;5053860;28;20074;-51
2022/02/01 00:08:55;;;;;;;47.97;19.88;;;;;;;1.44;56.13;98708.63;5053893;28;20115;-51
2022/02/01 00:37:50;;;;;;;40.42;16.80;;;;;;;1.23;57.20;98707.38;5053379;28;20382;-50
2022/02/01 00:40:16;;;;;;;40.10;15.98;;;;;;;1.29;56.67;98719.00;5053549;28;20476;-50
2022/02/01 00:42:41;;;;;;;45.67;16.10;;;;;;;1.27;57.23;98710.47;5053473;28;20048;-51
2022/02/01 00:45:07;;;;;;;35.38;15.63;;;;;;;1.37;56.51;98705.84;5053305;28;20047;-48
2022/02/01 00:47:33;;;;;;;35.90;15.20;;;;;;;1.49;55.08;98695.81;5053133;28;20024;-49
2022/02/01 00:49:58;;;;;;;32.88;14.50;;;;;;;1.75;55.17;98698.13;5052976;28;20082;-49
2022/02/01 00:52:26;;;;;;;33.60;14.60;;;;;;;1.66;53.96;98700.00;5053371;28;20473;-49
2022/02/01 00:54:52;;;;;;;38.70;15.43;;;;;;;1.61;54.62;98696.25;5054035;28;20390;-49
2022/02/01 00:57:18;;;;;;;35.30;15.13;;;;;;;1.63;55.85;98696.91;5054766;28;20067;-48
2022/02/01 00:59:43;;;;;;;44.78;18.25;;;;;;;1.64;55.24;98698.53;5053027;28;20156;-51
2022/02/01 01:02:09;;;;;;;42.08;17.63;;;;;;;1.63;56.81;98702.16;5052695;28;20037;-50
2022/02/01 01:04:34;;;;;;;42.03;17.45;;;;;;;1.42;56.57;98708.78;5053039;28;20040;-48
2022/02/01 01:07:00;;;;;;;49.63;17.30;;;;;;;1.45;57.24;98711.06;5052927;28;20024;-47
2022/02/01 01:09:25;;;;;;;42.55;17.40;;;;;;;1.34;56.59;98716.69;5052564;28;20473;-47
2022/02/01 01:11:55;;;;;;;43.45;16.58;;;;;;;1.35;56.85;98703.41;5053022;28;20049;-48
2022/02/01 01:44:47;;;;;;;37.40;16.02;;;;;;;1.32;57.56;98690.63;5052607;28;20040;-50
2022/02/01 01:55:40;;;;;;;35.55;14.05;;;;;;;1.24;58.30;98685.44;5052172;28;20036;-51
2022/02/01 01:58:06;;;;;;;30.90;12.73;;;;;;;1.21;58.13;98680.50;5051991;28;20033;-51
2022/02/01 02:03:06;;;;;;;25.75;11.80;;;;;;;1.22;58.92;98678.69;5051871;28;20040;-50
2022/02/01 02:05:31;;;;;;;27.08;12.43;;;;;;;1.20;59.05;98680.69;5051941;28;20051;-49
2022/02/01 02:07:57;;;;;;;24.52;11.80;;;;;;;1.09;58.14;98674.00;5051801;28;20028;-51
2022/02/01 02:10:28;;;;;;;28.08;11.07;;;;;;;1.07;58.81;98678.59;5050547;28;20053;-48
2022/02/01 02:13:04;;;;;;;28.33;12.35;;;;;;;1.60;56.84;98681.50;5051419;28;20140;-51
2022/02/01 02:15:44;;;;;;;27.65;11.15;;;;;;;1.40;58.45;98671.44;5051664;28;20397;-48
2022/02/01 02:18:10;;;;;;;26.92;11.00;;;;;;;1.47;59.01;98663.72;5051574;28;20103;-49
2022/02/01 02:20:42;;;;;;;29.27;11.43;;;;;;;1.37;58.27;98653.41;5051807;28;20408;-51
2022/02/01 02:23:08;;;;;;;24.40;10.80;;;;;;;1.59;56.21;98658.91;5051463;28;20154;-49
2022/02/01 02:25:37;;;;;;;25.23;10.73;;;;;;;1.57;55.82;98656.44;5051262;28;20028;-50
2022/02/01 02:28:03;;;;;;;26.85;10.40;;;;;;;1.29;57.67;98642.97;5051347;28;20039;-50
2022/02/01 02:30:29;;;;;;;26.08;10.02;;;;;;;1.36;57.55;98644.72;5051345;28;20025;-51
2022/02/01 02:32:54;;;;;;;22.55;9.07;;;;;;;1.29;57.93;98656.06;5051288;28;20098;-50
2022/02/01 02:35:20;;;;;;;23.35;10.20;;;;;;;1.45;58.23;98658.63;5050118;28;20025;-48
2022/02/01 02:37:45;;;;;;;21.10;8.82;;;;;;;1.27;57.57;98663.28;5049916;28;20438;-50
2022/02/01 02:40:33;;;;;;;68.03;13.18;;;;;;;1.43;56.82;98670.25;5050904;28;20033;-50
2022/02/01 02:45:43;;;;;;;26.23;11.43;;;;;;;1.20;58.97;98655.31;5051191;28;20036;-51
2022/02/01 02:48:12;;;;;;;26.02;11.93;;;;;;;1.01;58.61;98653.06;5051095;28;20036;-49
2022/02/01 02:50:37;;;;;;;35.90;12.45;;;;;;;1.01;58.68;98661.75;5050847;28;20029;-51
2022/02/01 02:53:03;;;;;;;26.00;11.35;;;;;;;0.84;59.05;98640.03;5050809;28;20028;-52
2022/02/01 02:55:31;;;;;;;25.10;10.90;;;;;;;0.82;60.01;98639.38;5050795;28;20045;-51
2022/02/01 02:57:57;;;;;;;26.55;10.55;;;;;;;0.93;59.56;98649.50;5050703;28;20453;-50
2022/02/01 03:00:22;;;;;;;26.92;12.13;;;;;;;1.11;58.94;98662.38;5049199;28;20032;-51
2022/02/01 03:02:48;;;;;;;31.42;12.07;;;;;;;0.99;58.69;98666.34;5050890;28;20036;-51
2022/02/01 03:05:13;;;;;;;28.05;11.45;;;;;;;0.85;58.84;98667.84;5050686;28;20024;-50
2022/02/01 03:07:39;;;;;;;27.65;12.38;;;;;;;0.66;60.10;98671.63;5050400;28;20503;-51
2022/02/01 03:10:05;;;;;;;29.00;12.88;;;;;;;0.51;60.67;98668.06;5049943;28;20057;-51
2022/02/01 03:13:06;;;;;;;27.95;11.85;;;;;;;0.90;60.80;98651.63;5050924;28;20108;-50
2022/02/01 03:20:57;;;;;;;27.40;12.77;;;;;;;0.50;61.16;98664.63;5028569;28;20496;-49
2022/02/01 03:23:22;;;;;;;35.83;12.98;;;;;;;0.56;61.84;98663.16;5045806;28;20032;-49
2022/02/01 03:25:48;;;;;;;32.97;13.43;;;;;;;0.47;61.38;98648.44;5050834;28;20021;-49
2022/02/01 03:28:13;;;;;;;32.95;12.32;;;;;;;0.30;61.24;98645.81;5050490;28;20025;-50
2022/02/01 03:30:39;;;;;;;27.92;13.50;;;;;;;0.59;59.91;98649.72;5050507;28;20613;-49
2022/02/01 03:33:04;;;;;;;31.33;13.32;;;;;;;0.61;61.40;98658.25;5050659;28;20048;-47
2022/02/01 03:35:30;;;;;;;31.10;13.63;;;;;;;0.62;60.89;98645.97;5050538;28;20401;-48
2022/02/01 03:37:57;;;;;;;30.67;13.05;;;;;;;0.62;61.85;98638.09;5050770;28;20032;-49
2022/02/01 03:40:22;;;;;;;29.17;13.30;;;;;;;0.32;61.11;98643.84;5050108;28;20024;-49
2022/02/01 03:42:48;;;;;;;33.42;13.40;;;;;;;0.35;61.73;98654.00;5049856;28;20036;-49
2022/02/01 03:45:13;;;;;;;33.83;13.38;;;;;;;0.70;60.22;98657.22;5050197;28;20021;-47
2022/02/01 03:47:38;;;;;;;33.17;13.90;;;;;;;0.45;60.64;98648.59;5050454;28;20437;-49
2022/02/01 03:50:07;;;;;;;32.00;14.25;;;;;;;0.35;61.15;98643.53;5050231;28;20025;-49
2022/02/01 03:52:33;;;;;;;32.90;13.60;;;;;;;0.33;62.35;98650.72;5050049;28;20473;-49
2022/02/01 03:54:59;;;;;;;29.70;13.48;;;;;;;0.37;61.39;98645.97;5050293;28;20029;-49
2022/02/01 03:57:24;;;;;;;31.02;13.32;;;;;;;0.52;61.89;98646.13;5050093;28;20044;-49
2022/02/01 03:59:49;;;;;;;32.92;13.57;;;;;;;0.27;61.52;98645.34;5049848;28;20079;-50
2022/02/01 04:02:15;;;;;;;28.17;12.27;;;;;;;0.31;62.35;98642.22;5050202;28;20036;-49
2022/02/01 04:04:41;;;;;;;34.63;12.98;;;;;;;0.51;61.84;98634.03;5050251;28;20496;-51
2022/02/01 04:07:07;;;;;;;33.75;14.30;;;;;;;0.44;62.29;98630.41;5050162;28;20074;-51
2022/02/01 04:09:33;;;;;;;29.60;13.75;;;;;;;0.61;60.70;98618.13;5049653;28;20037;-50
2022/02/01 04:12:00;;;;;;;32.65;13.52;;;;;;;0.83;60.49;98632.31;5050097;28;20033;-50
2022/02/01 04:14:31;;;;;;;31.10;13.35;;;;;;;0.55;60.18;98630.91;5049885;28;20044;-49
2022/02/01 04:16:57;;;;;;;34.95;13.82;;;;;;;0.69;61.34;98633.84;5049881;28;20080;-49
2022/02/01 04:19:23;;;;;;;31.02;13.02;;;;;;;0.72;61.83;98636.09;5050144;28;20033;-51
2022/02/01 04:22:11;;;;;;;29.38;13.55;;;;;;;0.72;62.07;98641.34;5050077;28;20029;-49
2022/02/01 04:24:39;;;;;;;30.75;13.55;;;;;;;0.65;61.12;98632.50;5049196;28;20201;-51
2022/02/01 04:27:05;;;;;;;;;;;;;;;0.78;61.45;98641.50;5050546;28;20032;-51
2022/02/01 04:29:30;;;;;;;28.67;13.05;;;;;;;0.62;61.07;98649.38;5051881;28;19909;-51
2022/02/01 04:31:55;;;;;;;30.42;13.10;;;;;;;0.55;61.65;98638.78;5053152;28;20031;-50
2022/02/01 04:34:21;;;;;;;36.38;13.90;;;;;;;0.51;61.81;98652.34;5053528;28;20036;-50
2022/02/01 04:36:47;;;;;;;30.65;13.38;;;;;;;0.37;61.89;98651.22;5053420;28;20404;-49
2022/02/01 04:39:12;;;;;;;31.65;14.73;;;;;;;0.36;62.17;98646.94;5053456;28;20039;-51
2022/02/01 04:41:38;;;;;;;29.77;13.80;;;;;;;0.31;62.52;98644.03;5053398;28;20481;-50
2022/02/01 04:44:03;;;;;;;36.00;16.52;;;;;;;0.31;62.52;98639.59;5053396;28;20094;-48
2022/02/01 04:46:29;;;;;;;96.03;36.15;;;;;;;0.47;61.57;98632.72;5053272;28;20106;-48
2022/02/01 04:49:01;;;;;;;38.50;16.80;;;;;;;0.31;62.12;98642.22;5053229;28;20457;-49
2022/02/01 04:51:27;;;;;;;27.35;11.88;;;;;;;0.32;60.61;98637.81;5053130;28;20485;-50
2022/02/01 04:53:52;;;;;;;25.77;12.13;;;;;;;0.35;61.99;98638.28;5053183;28;20040;-36
2022/02/01 04:56:18;;;;;;;27.30;12.32;;;;;;;0.52;61.11;98638.28;5052948;28;20041;-36
2022/02/01 04:58:44;;;;;;;30.08;12.70;;;;;;;0.46;61.98;98644.16;5052886;28;20472;-37
2022/02/01 05:01:09;;;;;;;27.65;14.02;;;;;;;0.44;60.89;98636.50;5053170;28;20075;-36
2022/02/01 05:03:35;;;;;;;33.65;13.70;;;;;;;0.49;60.50;98639.41;5052897;28;20592;-37
2022/02/01 05:06:02;;;;;;;29.92;13.07;;;;;;;0.54;61.00;98636.31;5052845;28;20103;-36
2022/02/01 05:08:27;;;;;;;28.52;12.90;;;;;;;0.72;61.44;98636.94;5053142;28;20052;-36
2022/02/01 05:10:52;;;;;;;31.40;13.38;;;;;;;0.58;61.02;98635.00;5052845;28;20057;-37
2022/02/01 05:16:05;;;;;;;28.10;13.02;;;;;;;0.52;60.73;98626.00;5052968;28;20057;-46
2022/02/01 05:18:38;;;;;;;29.38;13.80;;;;;;;0.30;61.38;98616.22;5051403;28;20115;-52
2022/02/01 05:21:11;;;;;;;29.42;12.35;;;;;;;0.34;61.01;98618.34;5052904;28;20123;-52
2022/02/01 05:23:37;;;;;;;28.27;12.82;;;;;;;0.53;61.54;98609.31;5052476;28;20025;-52
2022/02/01 05:26:03;;;;;;;29.30;12.90;;;;;;;0.50;60.00;98593.13;5052632;28;20135;-51
2022/02/01 05:28:28;;;;;;;25.77;11.98;;;;;;;0.45;59.65;98587.56;5052298;28;20029;-49
2022/02/01 05:31:01;;;;;;;29.35;12.55;;;;;;;0.49;60.37;98596.72;5051041;28;20558;-49
2022/02/01 05:33:26;;;;;;;23.13;11.90;;;;;;;0.33;60.90;98595.75;5052367;28;20086;-48
2022/02/01 05:35:52;;;;;;;33.72;13.25;;;;;;;0.46;63.64;98597.03;5051842;28;20455;-48
2022/02/01 05:38:18;;;;;;;32.65;14.00;;;;;;;0.72;64.40;98602.06;5051927;28;20045;-49
2022/02/01 05:40:44;;;;;;;29.05;13.65;;;;;;;1.21;63.54;98607.13;5051698;28;20040;-49
2022/02/01 05:43:15;;;;;;;29.98;13.20;;;;;;;1.12;59.69;98611.59;5049535;28;20401;-48
2022/02/01 05:45:41;;;;;;;29.98;13.40;;;;;;;1.01;59.91;98614.59;5046376;28;20028;-50
2022/02/01 05:48:09;;;;;;;40.72;17.35;;;;;;;1.05;59.51;98628.16;5036234;28;20034;-49
2022/02/01 05:50:35;;;;;;;38.08;16.27;;;;;;;0.91;59.73;98629.69;5031337;28;20025;-49
2022/02/01 05:53:01;;;;;;;51.35;21.10;;;;;;;0.76;61.89;98630.38;5032373;28;20518;-50
2022/02/01 05:55:26;;;;;;;57.72;23.23;;;;;;;0.81;61.64;98639.53;5031916;28;20440;-49
2022/02/01 05:57:53;;;;;;;39.88;16.58;;;;;;;0.91;59.92;98642.78;5031715;28;20040;-49
2022/02/01 06:00:19;;;;;;;39.75;15.38;;;;;;;0.87;60.03;98651.97;5031879;28;20064;-50
2022/02/01 06:02:46;;;;;;;106.70;43.17;;;;;;;0.81;61.24;98661.31;5031698;28;20025;-49
2022/02/01 06:05:12;;;;;;;65.90;27.60;;;;;;;1.09;60.70;98664.34;5030413;28;20175;-49
2022/02/01 06:07:37;;;;;;;56.58;25.90;;;;;;;1.33;61.04;98652.97;5030088;28;20466;-50
2022/02/01 06:10:03;;;;;;;102.38;43.97;;;;;;;1.36;59.77;98655.22;5048218;28;20049;-51
2022/02/01 06:12:37;;;;;;;42.95;17.63;;;;;;;1.26;59.42;98651.19;5051439;28;20052;-37
2022/02/01 06:15:03;;;;;;;45.58;20.85;;;;;;;1.23;59.80;98648.91;5051284;28;20500;-37
2022/02/01 06:17:28;;;;;;;64.93;25.25;;;;;;;1.46;59.96;98652.38;5051236;28;20037;-37
2022/02/01 06:19:54;;;;;;;40.30;18.17;;;;;;;1.41;58.59;98640.78;5051501;28;20342;-51
2022/02/01 06:22:19;;;;;;;50.17;22.55;;;;;;;1.35;59.20;98643.13;5051367;28;20021;-48
2022/02/01 06:24:45;;;;;;;60.20;27.52;;;;;;;1.44;60.13;98651.75;5051332;28;20029;-51
2022/02/01 06:27:10;;;;;;;49.15;19.17;;;;;;;1.65;58.13;98643.28;5050973;28;20025;-50
2022/02/01 06:29:36;;;;;;;43.08;19.15;;;;;;;1.45;58.95;98649.97;5051255;28;20551;-52
2022/02/01 06:32:01;;;;;;;43.17;20.02;;;;;;;1.55;60.76;98653.97;5049780;28;20401;-50
2022/02/01 06:34:27;;;;;;;45.75;21.52;;;;;;;1.76;60.25;98660.44;5038836;28;20063;-51
2022/02/01 06:36:52;;;;;;;56.40;25.15;;;;;;;1.45;60.30;98661.25;5031351;28;20029;-52
2022/02/01 06:39:20;;;;;;;55.15;26.55;;;;;;;1.08;62.50;98662.69;5031789;28;20465;-51
2022/02/01 06:41:46;;;;;;;76.55;29.02;;;;;;;1.05;62.20;98656.97;5031152;28;20068;-50
2022/02/01 06:44:11;;;;;;;66.38;25.98;;;;;;;1.12;61.99;98653.53;5030563;28;20033;-51
2022/02/01 06:46:37;;;;;;;60.42;24.45;;;;;;;0.85;63.47;98664.41;5049495;28;20025;-47
2022/02/01 06:49:03;;;;;;;56.35;23.52;;;;;;;0.82;63.32;98662.94;5049637;28;20029;-51
2022/02/01 06:51:29;;;;;;;54.83;23.38;;;;;;;1.04;62.43;98673.69;5049644;28;20416;-51
2022/02/01 06:53:56;;;;;;;54.22;23.08;;;;;;;1.16;62.19;98672.31;5049355;28;20032;-50
2022/02/01 06:56:28;;;;;;;39.20;19.52;;;;;;;0.92;62.42;98692.38;5050197;28;20067;-52
2022/02/01 06:58:57;;;;;;;45.47;19.27;;;;;;;1.08;62.52;98699.38;5049436;28;20446;-52
2022/02/01 07:01:23;;;;;;;42.28;19.67;;;;;;;1.11;62.95;98688.56;5050286;28;20027;-49
2022/02/01 07:03:49;;;;;;;69.30;30.65;;;;;;;1.13;62.16;98699.69;5050341;28;20064;-48
2022/02/01 07:06:14;;;;;;;78.10;35.28;;;;;;;1.26;61.80;98704.44;5050613;28;20040;-50
2022/02/01 07:08:42;;;;;;;41.78;17.95;;;;;;;1.32;61.19;98713.41;5050052;28;20025;-48
2022/02/01 07:11:08;;;;;;;45.95;19.42;;;;;;;1.35;59.63;98700.78;5050559;28;20045;-48
2022/02/01 07:13:33;;;;;;;37.33;18.05;;;;;;;1.41;61.54;98714.19;5050147;28;20020;-51
2022/02/01 07:15:59;;;;;;;66.55;31.63;;;;;;;1.54;62.99;98710.06;5050419;28;20032;-48
2022/02/01 07:18:25;;;;;;;66.15;25.73;;;;;;;1.61;60.30;98688.38;5050716;28;20069;-49
2022/02/01 07:20:50;;;;;;;42.13;17.50;;;;;;;1.70;59.30;98687.38;5049927;28;20033;-48
2022/02/01 07:23:22;;;;;;;34.85;15.57;;;;;;;2.21;58.99;98679.81;5049863;28;20036;-51
2022/02/01 07:25:48;;;;;;;44.45;19.95;;;;;;;1.95;58.40;98688.84;5050378;28;20025;-49
2022/02/01 07:28:13;;;;;;;45.70;19.88;;;;;;;2.10;57.79;98693.34;5050056;28;20085;-52
2022/02/01 07:30:39;;;;;;;45.65;20.10;;;;;;;2.19;57.63;98684.44;5048768;28;20439;-50
2022/02/01 07:33:04;;;;;;;40.38;19.73;;;;;;;1.84;58.38;98678.75;5050223;28;20092;-52
2022/02/01 07:35:31;;;;;;;44.20;19.30;;;;;;;2.02;58.16;98681.09;5051022;28;20461;-49
2022/02/01 07:37:57;;;;;;;39.30;18.48;;;;;;;1.75;58.93;98690.25;5050344;28;20094;-48
2022/02/01 07:40:23;;;;;;;43.92;18.35;;;;;;;1.84;59.08;98696.28;5050846;28;20029;-48
2022/02/01 07:42:49;;;;;;;43.92;17.27;;;;;;;1.73;59.92;98700.94;5048996;28;20098;-48
2022/02/01 07:45:15;;;;;;;36.35;17.70;;;;;;;1.75;59.29;98706.84;5050549;28;20093;-49
2022/02/01 07:47:40;;;;;;;35.63;16.05;;;;;;;1.72;59.12;98704.56;5050687;28;20032;-47
2022/02/01 07:50:06;;;;;;;41.15;17.42;;;;;;;1.71;59.36;98710.81;5050495;28;20029;-49
2022/02/01 07:52:32;;;;;;;45.80;17.40;;;;;;;1.54;59.65;98714.47;5050412;28;20033;-50
2022/02/01 07:54:57;;;;;;;47.28;18.63;;;;;;;1.46;60.01;98719.75;5050279;28;20035;-48
2022/02/01 07:57:23;;;;;;;48.15;19.83;;;;;;;1.53;59.38;98718.09;5050054;28;20067;-47
2022/02/01 07:59:48;;;;;;;48.67;21.25;;;;;;;1.65;59.73;98729.81;5050690;28;20385;-49
2022/02/01 08:02:21;;;;;;;49.83;20.63;;;;;;;1.86;58.94;98728.44;5050562;28;20040;-49
2022/02/01 08:04:47;;;;;;;43.65;19.45;;;;;;;1.98;57.73;98720.97;5053300;28;20123;-51
2022/02/01 08:07:13;;;;;;;48.92;18.67;;;;;;;2.03;58.63;98721.28;5054444;28;20516;-49
2022/02/01 08:09:42;;;;;;;40.97;17.95;;;;;;;2.12;57.92;98722.88;5054383;28;20063;-49
2022/02/01 08:20:02;;;;;;;44.65;18.77;;;;;;;1.95;58.47;98736.06;5054270;28;20101;-50
2022/02/01 08:23:01;;;;;;;40.05;18.95;;;;;;;2.09;58.39;98736.31;5054022;28;20032;-52
2022/02/01 08:25:23;;;;;;;50.47;20.10;;;;;;;2.19;57.80;98738.72;5053642;28;20076;-51
2022/02/01 08:27:49;;;;;;;45.10;19.67;;;;;;;1.91;58.72;98734.78;5053886;28;20029;-50
2022/02/01 08:30:15;;;;;;;52.90;21.17;;;;;;;2.09;58.22;98734.50;5052553;28;20056;-49
2022/02/01 08:32:40;;;;;;;54.00;22.63;;;;;;;2.20;58.19;98743.00;5053901;28;20029;-50
2022/02/01 08:35:06;;;;;;;43.05;17.85;;;;;;;2.28;57.95;98737.69;5054412;28;20032;-48
2022/02/01 08:37:32;;;;;;;39.58;17.45;;;;;;;2.25;58.57;98730.19;5053469;28;20503;-49
2022/02/01 08:39:58;;;;;;;39.30;16.23;;;;;;;2.31;57.53;98738.16;5053531;28;20508;-49
2022/02/01 08:42:23;;;;;;;32.53;14.98;;;;;;;2.51;58.31;98738.53;5052877;28;20029;-49
2022/02/01 08:44:48;;;;;;;34.35;14.82;;;;;;;2.59;56.87;98750.78;5053283;28;20091;-49
2022/02/01 08:47:14;;;;;;;33.65;14.07;;;;;;;2.41;56.91;98752.88;5053094;28;20036;-50
2022/02/01 08:49:40;;;;;;;31.50;13.52;;;;;;;2.57;56.60;98755.38;5052058;28;20021;-50
2022/02/01 08:52:09;;;;;;;27.35;12.82;;;;;;;2.63;57.43;98757.31;5052974;28;20027;-51
2022/02/01 08:54:37;;;;;;;29.92;13.52;;;;;;;2.70;56.59;98760.03;5051642;28;20095;-51
2022/02/01 08:57:21;;;;;;;32.33;13.48;;;;;;;2.82;56.63;98765.66;5052874;28;20025;-51
2022/02/01 08:59:49;;;;;;;27.88;13.20;;;;;;;2.75;56.78;98760.31;5052640;28;20020;-50
2022/02/01 09:02:16;;;;;;;29.02;14.27;;;;;;;2.63;56.90;98762.56;5051660;28;20032;-48
2022/02/01 09:04:41;;;;;;;33.42;14.27;;;;;;;2.76;56.96;98761.97;5053231;28;20017;-52
2022/02/01 09:07:07;;;;;;;35.85;16.20;;;;;;;2.64;57.10;98761.53;5052775;28;20021;-50
2022/02/01 09:09:32;;;;;;;52.10;21.42;;;;;;;2.75;58.63;98765.56;5052235;28;20040;-51
2022/02/01 09:11:58;;;;;;;47.35;19.80;;;;;;;2.83;57.97;98759.44;5052700;28;20028;-52
2022/02/01 09:14:24;;;;;;;41.20;17.95;;;;;;;2.73;58.88;98762.31;5052758;28;20040;-49
2022/02/01 09:16:50;;;;;;;37.80;17.88;;;;;;;2.64;57.39;98758.91;5051949;28;20029;-51
2022/02/01 09:19:16;;;;;;;38.15;17.90;;;;;;;2.71;58.17;98766.94;5052631;28;20476;-50
2022/02/01 09:21:41;;;;;;;36.67;16.98;;;;;;;2.86;58.02;98772.22;5052482;28;20428;-52
2022/02/01 09:24:07;;;;;;;37.78;16.52;;;;;;;2.85;59.61;98775.84;5050966;28;20025;-54
2022/02/01 09:26:33;;;;;;;34.10;14.65;;;;;;;2.82;58.71;98784.91;5052454;28;20048;-56
2022/02/01 09:28:59;;;;;;;28.50;13.45;;;;;;;2.72;59.73;98771.16;5052412;28;20024;-51
2022/02/01 09:31:24;;;;;;;29.08;13.80;;;;;;;2.83;59.90;98772.56;5052181;28;20043;-50
2022/02/01 09:33:50;;;;;;;31.52;14.48;;;;;;;2.68;60.58;98767.28;5052166;28;20028;-51
2022/02/01 09:36:15;;;;;;;30.02;14.13;;;;;;;2.85;60.86;98776.66;5051957;28;20052;-53
2022/02/01 09:38:41;;;;;;;32.63;14.13;;;;;;;2.89;60.66;98777.13;5051995;28;20024;-52
2022/02/01 09:41:07;;;;;;;28.92;13.93;;;;;;;2.93;61.91;98775.75;5053946;28;20100;-50
2022/02/01 09:43:33;;;;;;;26.58;13.00;;;;;;;2.97;61.61;98770.97;5058884;28;20036;-51
2022/02/01 09:45:59;;;;;;;29.02;14.27;;;;;;;2.72;62.12;98763.28;5060026;28;20060;-49
2022/02/01 09:48:25;;;;;;;29.15;14.07;;;;;;;2.92;61.98;98782.03;5066551;28;20063;-52
2022/02/01 09:50:50;;;;;;;28.35;13.35;;;;;;;2.75;63.43;98773.47;5055332;28;20061;-50
2022/02/01 09:53:16;;;;;;;27.15;13.57;;;;;;;2.77;64.00;98775.91;5066701;28;20129;-49
2022/02/01 09:55:42;;;;;;;29.25;14.32;;;;;;;2.88;64.24;98776.31;5060326;28;20576;-53
2022/02/01 09:58:11;;;;;;;31.15;13.57;;;;;;;2.71;64.51;98783.50;5059173;28;20049;-53
2022/02/01 10:00:44;;;;;;;24.67;12.88;;;;;;;2.78;65.31;98785.41;5067786;28;20093;-49
2022/02/01 10:03:14;;;;;;;27.35;13.15;;;;;;;2.66;65.12;98790.28;5040332;28;20021;-50
2022/02/01 10:05:40;;;;;;;34.03;13.57;;;;;;;2.55;66.20;98786.25;5062905;28;20036;-50
2022/02/01 10:08:05;;;;;;;29.10;13.32;;;;;;;2.53;65.16;98781.19;5062845;28;20047;-47
2022/02/01 10:10:31;;;;;;;30.85;13.90;;;;;;;2.49;64.97;98777.25;5066534;28;20052;-49
2022/02/01 10:13:00;;;;;;;31.60;13.70;;;;;;;2.55;63.67;98775.72;5054305;28;20040;-53
2022/02/01 10:15:26;;;;;;;30.50;12.65;;;;;;;2.50;63.63;98775.47;5064570;28;20029;-49
2022/02/01 10:18:01;;;;;;;24.95;13.05;;;;;;;2.64;63.30;98768.63;5061669;28;20063;-51
2022/02/01 10:20:39;;;;;;;28.33;13.00;;;;;;;2.76;63.37;98769.84;5056329;28;20051;-51
2022/02/01 10:23:22;;;;;;;29.35;13.32;;;;;;;2.86;64.19;98770.41;5038370;28;20115;-52
2022/02/01 10:26:09;;;;;;;36.78;12.90;;;;;;;2.72;64.98;98774.63;5061774;28;20028;-53
2022/02/01 10:29:00;;;;;;;30.35;14.07;;;;;;;3.00;63.91;98776.69;5067039;28;20082;-52
2022/02/01 10:31:40;;;;;;;27.90;12.85;;;;;;;2.87;65.93;98779.09;5038933;28;20103;-52
2022/02/01 10:36:55;;;;;;;38.53;15.90;;;;;;;2.85;66.39;98774.03;5054275;28;20035;-54
2022/02/01 10:39:30;;;;;;;30.92;13.75;;;;;;;2.86;67.42;98767.78;5065015;28;20123;-52
2022/02/01 10:41:58;;;;;;;80.85;24.75;;;;;;;2.93;67.40;98776.59;5061414;28;20032;-49
2022/02/01 10:44:37;;;;;;;34.35;14.98;;;;;;;2.86;67.36;98778.28;5054804;28;20404;-50
2022/02/01 10:47:02;;;;;;;30.13;13.77;;;;;;;2.59;68.04;98763.91;5067168;28;20075;-52
2022/02/01 10:49:31;;;;;;;34.28;13.25;;;;;;;2.75;68.04;98760.31;5056176;28;20468;-53
2022/02/01 10:52:05;;;;;;;33.43;14.27;;;;;;;2.69;69.01;98771.53;5060150;28;20487;-53
2022/02/01 10:54:32;;;;;;;29.45;13.73;;;;;;;2.74;68.55;98759.50;5066358;28;20030;-51
2022/02/01 10:56:59;;;;;;;29.15;13.45;;;;;;;2.71;68.95;98764.31;5054261;28;20444;-50
2022/02/01 10:59:24;;;;;;;26.50;13.13;;;;;;;2.41;70.07;98766.81;5063970;28;20028;-51
2022/02/01 11:01:51;;;;;;;31.90;15.40;;;;;;;1.94;72.93;98763.31;5060659;28;20036;-50
2022/02/01 11:04:17;;;;;;;31.67;15.68;;;;;;;2.16;73.38;98774.03;5039221;28;20543;-49
2022/02/01 11:06:42;;;;;;;36.30;17.88;;;;;;;2.07;73.30;98765.38;5065714;28;20119;-48
2022/02/01 11:09:07;;;;;;;38.42;18.92;;;;;;;1.78;74.95;98767.81;5051714;28;20033;-51
2022/02/01 11:11:33;;;;;;;42.00;19.80;;;;;;;1.78;75.41;98755.50;5029025;28;20057;-49
2022/02/01 11:13:59;;;;;;;37.92;18.52;;;;;;;1.90;75.80;98761.19;5052412;28;20062;-50
2022/02/01 11:16:26;;;;;;;39.47;18.65;;;;;;;2.14;75.76;98761.06;5055822;28;20032;-49
2022/02/01 11:19:10;;;;;;;36.60;18.80;;;;;;;2.26;75.70;98761.47;5066728;28;20416;-52
2022/02/01 11:21:46;;;;;;;35.08;15.85;;;;;;;1.86;77.23;98752.03;5058362;28;20031;-52
2022/02/01 11:24:32;;;;;;;35.92;17.75;;;;;;;1.89;78.10;98755.13;5057415;28;20032;-52
2022/02/01 11:27:19;;;;;;;32.83;15.32;;;;;;;1.83;78.59;98721.72;5066990;28;20033;-51
2022/02/01 11:30:11;;;;;;;30.23;14.70;;;;;;;2.21;76.96;98758.59;5058824;28;20028;-50
2022/02/01 11:32:36;;;;;;;;;;;;;;;2.17;78.01;98757.31;5053987;28;20412;-50
2022/02/01 11:35:10;;;;;;;30.08;14.15;;;;;;;2.34;77.86;98745.69;5066669;28;19925;-50
2022/02/01 11:37:48;;;;;;;30.27;13.18;;;;;;;2.58;77.19;98741.25;5058470;28;20025;-52
2022/02/01 11:40:14;;;;;;;22.35;12.25;;;;;;;2.43;76.72;98733.31;5063485;28;20259;-54
2022/02/01 11:42:50;;;;;;;28.02;12.77;;;;;;;2.48;76.87;98738.84;5073416;28;20029;-55
2022/02/01 11:45:28;;;;;;;25.92;12.05;;;;;;;2.92;75.76;98739.97;5045441;28;20020;-52
2022/02/01 11:47:54;;;;;;;26.45;11.85;;;;;;;2.88;76.13;98741.34;5066293;28;20036;-50
2022/02/01 11:50:22;;;;;;;27.50;12.05;;;;;;;2.81;76.45;98735.97;5070575;28;20020;-50
2022/02/01 11:52:50;;;;;;;23.80;11.50;;;;;;;2.96;76.25;98735.19;5060308;28;20104;-49
2022/02/01 11:55:17;;;;;;;21.77;10.82;;;;;;;2.83;76.28;98748.94;5071655;28;20012;-49
2022/02/01 11:57:44;;;;;;;26.15;12.15;;;;;;;2.67;77.48;98740.19;5065555;28;20055;-50
2022/02/01 12:00:17;;;;;;;23.35;10.23;;;;;;;2.47;77.55;98737.22;5063868;28;20021;-52
2022/02/01 12:02:53;;;;;;;24.33;11.25;;;;;;;2.66;77.28;98738.53;5072949;28;20037;-52
2022/02/01 12:05:30;;;;;;;20.83;10.20;;;;;;;2.74;77.50;98738.50;5062160;28;20495;-51
2022/02/01 12:08:13;;;;;;;22.42;10.45;;;;;;;2.62;78.49;98729.38;5065818;28;20037;-50
2022/02/01 12:10:44;;;;;;;21.00;11.07;;;;;;;2.75;77.90;98734.03;5069609;28;20067;-50
2022/02/01 12:13:11;;;;;;;21.95;11.20;;;;;;;2.57;78.13;98737.00;5060823;28;20412;-51
2022/02/01 12:15:39;;;;;;;27.92;12.40;;;;;;;2.76;78.08;98729.59;5068230;28;20382;-50
2022/02/01 12:18:09;;;;;;;23.48;11.38;;;;;;;2.57;79.32;98731.75;5068501;28;20103;-51
2022/02/01 12:20:35;;;;;;;19.92;9.32;;;;;;;2.56;78.19;98737.97;5060806;28;20082;-54
2022/02/01 12:23:24;;;;;;;21.80;10.05;;;;;;;2.52;79.46;98734.06;5055167;28;20468;-53
2022/02/01 12:25:50;;;;;;;18.42;10.13;;;;;;;2.52;78.75;98734.06;5066221;28;20036;-50
2022/02/01 12:28:20;;;;;;;20.98;10.57;;;;;;;2.68;79.84;98733.94;5063031;28;20082;-50
2022/02/01 12:30:46;;;;;;;19.23;10.65;;;;;;;2.66;79.49;98738.53;5072929;28;20035;-53
2022/02/01 12:33:20;;;;;;;25.42;10.70;;;;;;;2.68;79.86;98741.00;5059704;28;20012;-50
2022/02/01 12:35:46;;;;;;;19.95;9.75;;;;;;;2.82;78.97;98747.28;5067133;28;20032;-52
2022/02/01 12:38:19;;;;;;;22.70;9.77;;;;;;;2.79;79.36;98743.19;5069105;28;20028;-52
2022/02/01 12:40:45;;;;;;;23.30;11.55;;;;;;;2.80;79.30;98744.00;5059304;28;20495;-52
2022/02/01 12:43:16;;;;;;;24.35;11.05;;;;;;;2.87;79.66;98751.00;5071616;28;20060;-50
2022/02/01 12:48:10;;;;;;;18.95;10.35;;;;;;;2.71;80.54;98754.59;5063689;28;20044;-51
2022/02/01 12:50:35;;;;;;;23.17;11.15;;;;;;;2.97;80.01;98753.41;5070513;28;20472;-51
2022/02/01 12:53:02;;;;;;;22.25;10.65;;;;;;;3.16;78.89;98759.13;5056435;28;20487;-52
2022/02/01 12:55:28;;;;;;;22.88;10.52;;;;;;;3.16;79.04;98767.00;5066318;28;20029;-53
2022/02/01 12:57:54;;;;;;;20.65;10.30;;;;;;;3.04;79.76;98770.06;5063168;28;20024;-49
2022/02/01 13:00:23;;;;;;;20.90;10.35;;;;;;;3.03;79.16;98763.19;5058761;28;20112;-39
2022/02/01 13:02:55;;;;;;;22.08;10.10;;;;;;;2.53;80.30;98756.69;5069949;28;20020;-37